Lähimmät METAR asemat

 

EFPO - Pori (mil/Civ), Finland
Distance from station: PLU 42km
Päivitetty: 24/10/2017 02:50
Vaihtelevaa
Vaihtelevaa
 Wind from IKA
Tuuli: IKA 11 km/h
Lämpötila: 0°C
Wind Chill: -4°C
Kastepiste: -4°C
Kosteus: 75%
Ilmanpaine: 1031 hPa
Clouds: Vaihtelevaa
Visibility: 10 km
Cloud details: Vaihtelevaa 610 m
2017/10/23 23:50 EFPO 232350Z AUTO 11006KT 080V150 9999 OVC020/// 00/M04 Q1031
EFTU - Turku/Abo, Finland
Distance from station: E 68km
Päivitetty: 24/10/2017 02:50
Selkeätä
Selkeätä
 Wind from IKO
Tuuli: IKO 7 km/h
Lämpötila: -5°C
Wind Chill: -8°C
Kastepiste: -6°C
Kosteus: 93%
Ilmanpaine: 1031 hPa
Yhteenveto: Selkeätä
Visibility: greater than 10 km
2017/10/23 23:50 EFTU 232350Z AUTO 06004KT CAVOK M05/M06 Q1031
 
EFTP - Tampere/Pirkkala, Finland
Distance from station: IKO 84km
Päivitetty: 24/10/2017 02:50
Vaihtelevaa
Vaihtelevaa
 Wind from varies
Tuuli: varies 6 km/h
Lämpötila: 0°C
Kastepiste: -3°C
Kosteus: 80%
Ilmanpaine: 1031 hPa
Clouds: Vaihtelevaa
Visibility: 10 km
Cloud details: Enimmäkseen pilvistä 488 m
Vaihtelevaa 579 m
2017/10/23 23:50 EFTP 232350Z AUTO VRB03KT 060V140 9999 BKN016 OVC019/// 00/M03 Q1031